Terminal Aerodrome Forecast
Issued by NWS

Current Version | Previous Version | Graphics & Text | Print | Product List | Glossary On
Versions: 1 2 3 4 5 6 7 8 9 10 11 12 13
000
FTUS41 KRNK 171728
TAFLWB
TAF
KLWB 171728Z 1718/1818 24004KT P6SM VCSH BKN050
      TEMPO 1719/1720 4SM SHRA BKN040
     FM172000 24004KT P6SM VCTS FEW040CB SCT050
     FM180000 VRB03KT P6SM BKN080 BKN250
     FM180600 VRB03KT 5SM BR SCT040
     FM181100 VRB03KT P6SM BKN015
     FM181400 25005KT P6SM VCSH BKN035=

USA.gov is the U.S. government's official web portal to all federal, state and local government web resources and services.